createdAt,value
2023-04-15T00:01:52.248Z,21.93
2023-04-15T00:04:19.091Z,22.13
2023-04-15T00:06:45.975Z,22.12
2023-04-15T00:09:12.712Z,22.19
2023-04-15T00:11:39.456Z,22.55
2023-04-15T00:14:07.336Z,22.43
2023-04-15T00:16:34.195Z,22.39
2023-04-15T00:19:01.110Z,22.54
2023-04-15T00:21:28.963Z,22.56
2023-04-15T00:23:55.823Z,22.58
2023-04-15T00:26:22.552Z,22.75
2023-04-15T00:28:49.389Z,22.85
2023-04-15T00:31:16.301Z,22.78
2023-04-15T00:33:43.136Z,22.89
2023-04-15T00:36:10.006Z,22.95
2023-04-15T00:38:36.741Z,22.91
2023-04-15T00:41:03.697Z,22.96
2023-04-15T00:43:30.475Z,22.59
2023-04-15T00:45:57.698Z,20.51
2023-04-15T00:48:24.455Z,19.37
2023-04-15T00:50:51.252Z,20.14
2023-04-15T00:53:18.010Z,20.41
2023-04-15T00:55:44.753Z,21.24
2023-04-15T00:58:11.872Z,21.54
2023-04-15T01:00:38.723Z,21.80
2023-04-15T01:03:05.538Z,21.91
2023-04-15T01:05:32.426Z,22.05
2023-04-15T01:07:59.354Z,22.20
2023-04-15T01:10:26.079Z,22.27
2023-04-15T01:12:52.975Z,22.24
2023-04-15T01:15:20.324Z,22.39
2023-04-15T01:17:47.083Z,22.39
2023-04-15T01:20:15.850Z,22.57
2023-04-15T01:22:42.603Z,22.58
2023-04-15T01:25:09.500Z,22.58
2023-04-15T01:27:36.410Z,22.63
2023-04-15T01:30:05.219Z,22.67
2023-04-15T01:32:32.129Z,22.79
2023-04-15T01:34:58.966Z,22.79
2023-04-15T01:37:26.069Z,22.85
2023-04-15T01:39:52.815Z,22.85
2023-04-15T01:42:19.598Z,22.93
2023-04-15T01:44:46.334Z,22.76
2023-04-15T01:47:13.092Z,20.50
2023-04-15T01:49:39.894Z,19.57
2023-04-15T01:52:06.624Z,20.07
2023-04-15T01:54:33.385Z,20.26
2023-04-15T01:57:00.272Z,20.69
2023-04-15T01:59:27.278Z,21.06
2023-04-15T02:01:54.055Z,21.68
2023-04-15T02:04:20.826Z,21.74
2023-04-15T02:06:47.577Z,21.81
2023-04-15T02:09:14.539Z,21.99
2023-04-15T02:11:41.332Z,22.04
2023-04-15T02:14:08.205Z,22.20
2023-04-15T02:16:35.030Z,22.33
2023-04-15T02:19:02.146Z,22.45
2023-04-15T02:21:29.228Z,22.39
2023-04-15T02:23:56.279Z,22.47
2023-04-15T02:26:23.141Z,22.54
2023-04-15T02:28:51.263Z,22.59
2023-04-15T02:31:18.071Z,22.68
2023-04-15T02:33:45.051Z,22.76
2023-04-15T02:36:12.444Z,22.75
2023-04-15T02:38:42.244Z,22.79
2023-04-15T02:41:09.367Z,22.85
2023-04-15T02:43:36.181Z,22.89
2023-04-15T02:46:03.020Z,22.84
2023-04-15T02:48:29.855Z,22.97
2023-04-15T02:50:56.602Z,23.00
2023-04-15T02:53:23.352Z,23.00
2023-04-15T02:55:50.199Z,22.85
2023-04-15T02:58:16.981Z,20.73
2023-04-15T03:00:43.745Z,19.44
2023-04-15T03:03:10.807Z,20.18
2023-04-15T03:05:39.089Z,20.27
2023-04-15T03:08:06.519Z,21.10
2023-04-15T03:10:33.308Z,21.60
2023-04-15T03:13:00.987Z,21.72
2023-04-15T03:15:27.886Z,21.96
2023-04-15T03:17:54.751Z,22.00
2023-04-15T03:20:21.602Z,22.27
2023-04-15T03:22:48.365Z,22.24
2023-04-15T03:25:15.158Z,22.33
2023-04-15T03:27:41.983Z,22.48
2023-04-15T03:30:08.910Z,22.49
2023-04-15T03:32:35.872Z,22.58
2023-04-15T03:35:02.680Z,22.62
2023-04-15T03:37:29.479Z,22.65
2023-04-15T03:39:56.430Z,22.72
2023-04-15T03:42:23.203Z,22.78
2023-04-15T03:44:49.966Z,22.81
2023-04-15T03:47:17.131Z,22.88
2023-04-15T03:49:43.859Z,22.86
2023-04-15T03:52:10.711Z,23.06
2023-04-15T03:54:38.820Z,22.90
2023-04-15T03:57:05.700Z,20.85
2023-04-15T03:59:32.526Z,19.25
2023-04-15T04:01:59.390Z,20.09
2023-04-15T04:04:26.575Z,20.48
2023-04-15T04:06:53.563Z,21.19
2023-04-15T04:09:20.506Z,21.53
2023-04-15T04:11:47.252Z,21.76
2023-04-15T04:14:14.000Z,21.87
2023-04-15T04:16:41.007Z,22.07
2023-04-15T04:19:08.320Z,22.20
2023-04-15T04:21:35.130Z,22.17
2023-04-15T04:24:02.038Z,22.22
2023-04-15T04:26:28.836Z,22.37
2023-04-15T04:28:55.616Z,22.52
2023-04-15T04:31:22.470Z,22.51
2023-04-15T04:33:49.224Z,22.63
2023-04-15T04:36:16.288Z,22.65
2023-04-15T04:38:43.029Z,22.68
2023-04-15T04:41:09.759Z,22.76
2023-04-15T04:43:36.525Z,22.85
2023-04-15T04:46:03.327Z,22.89
2023-04-15T04:48:30.246Z,22.81
2023-04-15T04:50:56.980Z,22.87
2023-04-15T04:53:23.761Z,22.80
2023-04-15T04:55:50.959Z,20.60
2023-04-15T04:58:17.764Z,19.17
2023-04-15T05:00:44.529Z,19.73
2023-04-15T05:03:11.401Z,20.48
2023-04-15T05:05:41.003Z,20.99
2023-04-15T05:08:07.938Z,21.48
2023-04-15T05:10:34.670Z,21.75
2023-04-15T05:13:01.447Z,21.89
2023-04-15T05:15:28.238Z,21.89
2023-04-15T05:17:55.124Z,22.06
2023-04-15T05:20:22.016Z,22.10
2023-04-15T05:22:48.786Z,22.34
2023-04-15T05:25:16.257Z,22.41
2023-04-15T05:27:43.014Z,22.47
2023-04-15T05:30:11.572Z,22.46
2023-04-15T05:32:40.109Z,22.51
2023-04-15T05:35:07.933Z,22.54
2023-04-15T05:37:34.685Z,22.65
2023-04-15T05:40:01.502Z,22.70
2023-04-15T05:42:28.270Z,22.74
2023-04-15T05:44:55.069Z,22.74
2023-04-15T05:47:22.079Z,22.85
2023-04-15T05:49:48.850Z,22.89
2023-04-15T05:52:15.638Z,22.92
2023-04-15T05:54:42.392Z,21.30
2023-04-15T05:57:09.140Z,19.20
2023-04-15T05:59:36.025Z,19.47
2023-04-15T06:02:02.824Z,20.17
2023-04-15T06:04:30.244Z,20.65
2023-04-15T06:06:57.143Z,21.13
2023-04-15T06:09:23.977Z,21.51
2023-04-15T06:11:50.890Z,21.81
2023-04-15T06:14:17.663Z,21.85
2023-04-15T06:16:44.444Z,22.03
2023-04-15T06:19:12.242Z,22.16
2023-04-15T06:21:38.993Z,22.21
2023-04-15T06:24:05.932Z,22.37
2023-04-15T06:26:32.663Z,22.41
2023-04-15T06:28:59.682Z,22.58
2023-04-15T06:31:26.831Z,22.43
2023-04-15T06:33:53.664Z,22.57
2023-04-15T06:36:20.562Z,22.58
2023-04-15T06:38:47.300Z,22.70
2023-04-15T06:41:14.047Z,22.70
2023-04-15T06:43:40.806Z,22.76
2023-04-15T06:46:07.671Z,22.95
2023-04-15T06:48:34.462Z,22.86
2023-04-15T06:51:01.297Z,22.94
2023-04-15T06:53:28.118Z,22.97
2023-04-15T06:55:54.894Z,22.78
2023-04-15T06:58:21.731Z,20.20
2023-04-15T07:00:48.964Z,18.62
2023-04-15T07:03:15.888Z,19.80
2023-04-15T07:05:42.671Z,20.63
2023-04-15T07:08:09.424Z,21.23
2023-04-15T07:10:36.285Z,21.57
2023-04-15T07:13:03.042Z,21.85
2023-04-15T07:15:29.791Z,21.97
2023-04-15T07:17:56.544Z,22.05
2023-04-15T07:20:23.383Z,22.15
2023-04-15T07:22:50.131Z,22.29
2023-04-15T07:25:17.612Z,22.38
2023-04-15T07:27:44.425Z,22.40
2023-04-15T07:30:11.271Z,22.47
2023-04-15T07:32:38.052Z,22.55
2023-04-15T07:35:04.916Z,22.62
2023-04-15T07:37:32.110Z,22.60
2023-04-15T07:39:58.868Z,22.73
2023-04-15T07:42:25.649Z,22.81
2023-04-15T07:44:52.384Z,22.90
2023-04-15T07:47:19.173Z,22.90
2023-04-15T07:49:46.242Z,22.95
2023-04-15T07:52:12.980Z,22.88
2023-04-15T07:54:39.780Z,20.12
2023-04-15T07:57:06.555Z,18.53
2023-04-15T07:59:33.680Z,19.47
2023-04-15T08:02:00.489Z,20.60
2023-04-15T08:04:27.442Z,21.25
2023-04-15T08:06:54.805Z,21.47
2023-04-15T08:09:21.617Z,21.78
2023-04-15T08:11:48.374Z,21.91
2023-04-15T08:14:15.399Z,22.00
2023-04-15T08:16:42.303Z,22.15
2023-04-15T08:19:09.253Z,22.22
2023-04-15T08:21:36.439Z,22.23
2023-04-15T08:24:03.239Z,22.26
2023-04-15T08:26:30.041Z,22.44
2023-04-15T08:28:57.252Z,22.56
2023-04-15T08:31:24.161Z,22.55
2023-04-15T08:33:52.400Z,22.60
2023-04-15T08:36:19.154Z,22.73
2023-04-15T08:38:46.090Z,22.91
2023-04-15T08:41:14.200Z,22.89
2023-04-15T08:43:41.391Z,22.87
2023-04-15T08:46:08.128Z,22.93
2023-04-15T08:48:35.800Z,22.95
2023-04-15T08:51:02.929Z,21.18
2023-04-15T08:53:29.672Z,18.85
2023-04-15T08:55:56.503Z,18.53
2023-04-15T08:58:23.258Z,20.23
2023-04-15T09:00:50.052Z,21.03
2023-04-15T09:03:17.630Z,21.58
2023-04-15T09:05:44.560Z,21.71
2023-04-15T09:08:11.873Z,21.88
2023-04-15T09:10:38.637Z,21.92
2023-04-15T09:13:05.428Z,22.12
2023-04-15T09:15:32.192Z,22.17
2023-04-15T09:17:59.007Z,22.30
2023-04-15T09:20:26.255Z,22.29
2023-04-15T09:22:53.090Z,22.45
2023-04-15T09:25:19.874Z,22.50
2023-04-15T09:27:46.705Z,22.56
2023-04-15T09:30:13.482Z,22.62
2023-04-15T09:32:40.855Z,22.70
2023-04-15T09:35:07.629Z,22.76
2023-04-15T09:37:34.359Z,22.86
2023-04-15T09:40:01.531Z,22.80
2023-04-15T09:42:28.621Z,22.86
2023-04-15T09:44:55.477Z,22.92
2023-04-15T09:47:22.335Z,22.28
2023-04-15T09:49:49.152Z,19.65
2023-04-15T09:52:15.896Z,18.67
2023-04-15T09:54:42.707Z,19.91
2023-04-15T09:57:10.149Z,20.83
2023-04-15T09:59:37.339Z,21.36
2023-04-15T10:02:04.150Z,21.69
2023-04-15T10:04:31.008Z,21.83
2023-04-15T10:06:57.758Z,22.02
2023-04-15T10:09:24.520Z,22.29
2023-04-15T10:11:51.299Z,22.29
2023-04-15T10:14:18.036Z,22.31
2023-04-15T10:16:45.871Z,22.27
2023-04-15T10:19:12.610Z,22.48
2023-04-15T10:21:39.364Z,22.61
2023-04-15T10:24:06.150Z,22.60
2023-04-15T10:26:32.893Z,22.65
2023-04-15T10:29:00.145Z,22.77
2023-04-15T10:31:27.275Z,22.85
2023-04-15T10:33:54.094Z,22.83
2023-04-15T10:36:20.817Z,22.88
2023-04-15T10:38:47.654Z,21.10
2023-04-15T10:41:14.615Z,19.13
2023-04-15T10:43:41.359Z,18.92
2023-04-15T10:46:08.181Z,20.29
2023-04-15T10:48:34.934Z,21.11
2023-04-15T10:51:05.237Z,21.50
2023-04-15T10:53:32.017Z,21.75
2023-04-15T10:55:58.976Z,21.86
2023-04-15T10:58:25.919Z,21.96
2023-04-15T11:00:52.956Z,22.14
2023-04-15T11:03:19.852Z,22.21
2023-04-15T11:05:46.741Z,22.30
2023-04-15T11:08:13.535Z,22.35
2023-04-15T11:10:40.327Z,22.43
2023-04-15T11:13:07.073Z,22.48
2023-04-15T11:15:33.862Z,22.57
2023-04-15T11:18:00.761Z,22.60
2023-04-15T11:20:27.553Z,22.72
2023-04-15T11:23:14.800Z,22.72
2023-04-15T11:25:41.653Z,22.95
2023-04-15T11:28:08.724Z,22.84
2023-04-15T11:30:35.646Z,22.82
2023-04-15T11:33:02.526Z,22.92
2023-04-15T11:35:29.374Z,21.55
2023-04-15T11:37:56.169Z,19.38
2023-04-15T11:40:22.953Z,18.95
2023-04-15T11:42:50.212Z,20.33
2023-04-15T11:45:17.101Z,21.12
2023-04-15T11:47:43.937Z,21.47
2023-04-15T11:50:10.850Z,21.68
2023-04-15T11:52:37.666Z,22.01
2023-04-15T11:55:04.469Z,22.04
2023-04-15T11:57:31.300Z,22.15
2023-04-15T11:59:58.129Z,22.36
2023-04-15T12:02:24.944Z,22.34
2023-04-15T12:04:51.899Z,22.46
2023-04-15T12:07:18.973Z,22.47
2023-04-15T12:09:45.706Z,22.50
2023-04-15T12:12:12.653Z,22.65
2023-04-15T12:14:39.405Z,22.72
2023-04-15T12:17:06.185Z,22.80
2023-04-15T12:19:32.974Z,22.82
2023-04-15T12:22:00.767Z,22.87
2023-04-15T12:24:27.956Z,22.93
2023-04-15T12:26:54.926Z,22.97
2023-04-15T12:29:22.072Z,23.13
2023-04-15T12:31:49.695Z,22.14
2023-04-15T12:34:16.763Z,19.88
2023-04-15T12:36:43.547Z,18.69
2023-04-15T12:39:10.404Z,20.12
2023-04-15T12:41:37.214Z,20.94
2023-04-15T12:44:04.315Z,21.48
2023-04-15T12:46:31.425Z,21.71
2023-04-15T12:48:58.261Z,21.86
2023-04-15T12:51:27.240Z,22.06
2023-04-15T12:53:53.998Z,22.12
2023-04-15T12:56:20.841Z,22.21
2023-04-15T12:58:47.587Z,22.42
2023-04-15T13:01:14.340Z,22.44
2023-04-15T13:03:41.305Z,22.48
2023-04-15T13:06:08.212Z,22.60
2023-04-15T13:08:38.420Z,22.63
2023-04-15T13:11:07.162Z,22.68
2023-04-15T13:13:33.910Z,22.70
2023-04-15T13:16:00.692Z,22.76
2023-04-15T13:18:27.613Z,22.78
2023-04-15T13:20:54.388Z,22.86
2023-04-15T13:23:21.138Z,22.91
2023-04-15T13:25:47.960Z,22.97
2023-04-15T13:28:14.714Z,20.85
2023-04-15T13:30:41.499Z,19.04
2023-04-15T13:33:08.273Z,19.59
2023-04-15T13:35:35.192Z,20.50
2023-04-15T13:38:01.935Z,21.41
2023-04-15T13:40:28.736Z,21.61
2023-04-15T13:42:56.069Z,21.89
2023-04-15T13:45:22.885Z,22.04
2023-04-15T13:47:49.689Z,22.13
2023-04-15T13:50:16.565Z,22.17
2023-04-15T13:52:43.324Z,22.26
2023-04-15T13:55:19.372Z,22.39
2023-04-15T13:57:47.523Z,22.59
2023-04-15T14:00:14.481Z,22.46
2023-04-15T14:02:42.200Z,22.63
2023-04-15T14:05:09.209Z,22.61
2023-04-15T14:07:36.420Z,22.75
2023-04-15T14:10:03.214Z,22.70
2023-04-15T14:12:29.957Z,22.76
2023-04-15T14:14:56.771Z,22.89
2023-04-15T14:17:23.557Z,23.01
2023-04-15T14:19:50.342Z,22.94
2023-04-15T14:22:18.786Z,22.94
2023-04-15T14:24:45.585Z,21.73
2023-04-15T14:27:12.688Z,19.42
2023-04-15T14:29:39.564Z,18.81
2023-04-15T14:32:11.892Z,20.32
2023-04-15T14:34:39.229Z,21.08
2023-04-15T14:37:06.212Z,21.64
2023-04-15T14:39:32.954Z,21.83
2023-04-15T14:41:59.787Z,21.96
2023-04-15T14:44:26.595Z,22.06
2023-04-15T14:46:53.676Z,22.23
2023-04-15T14:49:20.708Z,22.22
2023-04-15T14:51:47.502Z,22.28
2023-04-15T14:54:14.354Z,22.51
2023-04-15T14:56:41.341Z,22.47
2023-04-15T14:59:08.105Z,22.55
2023-04-15T15:01:34.926Z,22.64
2023-04-15T15:04:01.875Z,22.78
2023-04-15T15:06:28.756Z,22.72
2023-04-15T15:08:55.499Z,22.85
2023-04-15T15:11:22.252Z,22.89
2023-04-15T15:13:49.129Z,22.87
2023-04-15T15:16:15.886Z,22.93
2023-04-15T15:18:42.684Z,21.67
2023-04-15T15:21:09.462Z,19.46
2023-04-15T15:23:36.297Z,19.17
2023-04-15T15:26:03.073Z,20.35
2023-04-15T15:28:29.906Z,21.19
2023-04-15T15:30:56.766Z,21.62
2023-04-15T15:33:23.579Z,21.93
2023-04-15T15:35:50.375Z,21.93
2023-04-15T15:38:17.166Z,22.12
2023-04-15T15:40:43.932Z,22.12
2023-04-15T15:43:10.858Z,22.25
2023-04-15T15:45:37.651Z,22.41
2023-04-15T15:48:04.546Z,22.44
2023-04-15T15:50:31.360Z,22.52
2023-04-15T15:52:58.578Z,22.64
2023-04-15T15:55:27.104Z,22.66
2023-04-15T15:57:54.328Z,22.68
2023-04-15T16:00:22.690Z,22.72
2023-04-15T16:03:05.894Z,22.72
2023-04-15T16:05:33.338Z,22.82
2023-04-15T16:08:00.115Z,22.83
2023-04-15T16:10:26.948Z,22.41
2023-04-15T16:12:53.748Z,19.79
2023-04-15T16:15:20.536Z,18.74
2023-04-15T16:17:47.336Z,19.88
2023-04-15T16:20:14.132Z,20.80
2023-04-15T16:22:40.881Z,21.36
2023-04-15T16:25:07.637Z,21.62
2023-04-15T16:27:36.466Z,21.98
2023-04-15T16:30:10.220Z,22.03
2023-04-15T16:32:37.051Z,22.17
2023-04-15T16:35:03.874Z,22.17
2023-04-15T16:37:32.988Z,22.32
2023-04-15T16:39:59.773Z,22.42
2023-04-15T16:42:26.517Z,22.41
2023-04-15T16:44:53.408Z,22.46
2023-04-15T16:47:20.167Z,22.58
2023-04-15T16:49:46.910Z,22.64
2023-04-15T16:52:13.657Z,22.82
2023-04-15T16:54:43.346Z,22.75
2023-04-15T16:57:10.106Z,22.82
2023-04-15T16:59:36.956Z,22.91
2023-04-15T17:02:03.770Z,22.86
2023-04-15T17:04:30.663Z,22.93
2023-04-15T17:06:57.529Z,22.96
2023-04-15T17:09:24.355Z,22.65
2023-04-15T17:11:51.096Z,20.17
2023-04-15T17:14:17.859Z,18.82
2023-04-15T17:16:44.676Z,19.83
2023-04-15T17:19:11.424Z,20.80
2023-04-15T17:21:38.179Z,21.39
2023-04-15T17:24:04.951Z,21.56
2023-04-15T17:26:31.734Z,21.91
2023-04-15T17:28:58.623Z,22.05
2023-04-15T17:31:25.548Z,22.10
2023-04-15T17:34:01.948Z,22.17
2023-04-15T17:36:36.081Z,22.26
2023-04-15T17:39:03.384Z,22.41
2023-04-15T17:41:30.472Z,22.40
2023-04-15T17:43:57.229Z,22.54
2023-04-15T17:46:24.030Z,22.64
2023-04-15T17:48:50.806Z,22.67
2023-04-15T17:51:17.586Z,22.79
2023-04-15T17:53:44.331Z,22.78
2023-04-15T17:56:11.071Z,22.83
2023-04-15T17:58:39.109Z,22.91
2023-04-15T18:01:06.290Z,22.90
2023-04-15T18:03:33.229Z,21.23
2023-04-15T18:06:01.210Z,18.84
2023-04-15T18:08:27.981Z,18.34
2023-04-15T18:10:54.719Z,20.09
2023-04-15T18:13:21.482Z,21.00
2023-04-15T18:15:49.324Z,21.34
2023-04-15T18:18:16.148Z,21.67
2023-04-15T18:20:42.915Z,21.87
2023-04-15T18:23:09.656Z,21.92
2023-04-15T18:25:38.130Z,22.12
2023-04-15T18:28:05.514Z,22.19
2023-04-15T18:30:32.301Z,22.16
2023-04-15T18:32:59.149Z,22.31
2023-04-15T18:35:25.955Z,22.37
2023-04-15T18:37:52.816Z,22.39
2023-04-15T18:40:19.572Z,22.53
2023-04-15T18:42:46.402Z,22.59
2023-04-15T18:45:13.165Z,22.62
2023-04-15T18:47:39.998Z,22.66
2023-04-15T18:50:06.818Z,22.73
2023-04-15T18:52:34.066Z,22.80
2023-04-15T18:55:00.841Z,22.82
2023-04-15T18:57:31.720Z,22.90
2023-04-15T19:00:00.001Z,22.91
2023-04-15T19:02:26.991Z,22.97
2023-04-15T19:04:53.801Z,20.71
2023-04-15T19:07:20.614Z,18.81
2023-04-15T19:09:47.374Z,19.03
2023-04-15T19:12:14.134Z,20.44
2023-04-15T19:14:40.909Z,21.17
2023-04-15T19:17:07.697Z,21.50
2023-04-15T19:19:34.523Z,21.72
2023-04-15T19:22:03.193Z,21.92
2023-04-15T19:24:31.638Z,22.08
2023-04-15T19:26:59.596Z,22.15
2023-04-15T19:29:28.367Z,22.22
2023-04-15T19:31:55.272Z,22.28
2023-04-15T19:34:22.036Z,22.33
2023-04-15T19:36:48.792Z,22.46
2023-04-15T19:39:15.733Z,22.58
2023-04-15T19:41:44.086Z,22.61
2023-04-15T19:44:12.755Z,22.63
2023-04-15T19:46:39.772Z,22.64
2023-04-15T19:49:06.917Z,22.70
2023-04-15T19:51:33.847Z,22.77
2023-04-15T19:54:00.722Z,22.81
2023-04-15T19:56:27.617Z,23.00
2023-04-15T19:58:54.545Z,22.63
2023-04-15T20:01:21.295Z,19.95
2023-04-15T20:03:48.310Z,18.32
2023-04-15T20:06:15.321Z,19.60
2023-04-15T20:08:42.077Z,20.61
2023-04-15T20:11:08.839Z,21.04
2023-04-15T20:13:35.644Z,21.48
2023-04-15T20:16:02.413Z,21.76
2023-04-15T20:18:29.250Z,21.89
2023-04-15T20:20:55.981Z,22.02
2023-04-15T20:23:22.720Z,22.10
2023-04-15T20:25:49.639Z,22.15
2023-04-15T20:28:18.705Z,22.32
2023-04-15T20:30:45.598Z,22.42
2023-04-15T20:33:12.398Z,22.44
2023-04-15T20:35:39.143Z,22.57
2023-04-15T20:38:05.982Z,22.44
2023-04-15T20:40:33.611Z,22.60
2023-04-15T20:43:00.501Z,22.68
2023-04-15T20:45:27.305Z,22.72
2023-04-15T20:47:55.149Z,22.75
2023-04-15T20:50:21.966Z,22.86
2023-04-15T20:52:48.717Z,22.91
2023-04-15T20:55:15.633Z,22.91
2023-04-15T20:57:42.463Z,23.04
2023-04-15T21:00:10.681Z,22.93
2023-04-15T21:02:37.555Z,22.63
2023-04-15T21:05:04.490Z,19.94
2023-04-15T21:07:31.246Z,18.19
2023-04-15T21:09:58.042Z,19.56
2023-04-15T21:12:24.790Z,20.57
2023-04-15T21:14:51.599Z,21.21
2023-04-15T21:17:18.510Z,21.51
2023-04-15T21:19:45.278Z,21.76
2023-04-15T21:22:12.067Z,21.85
2023-04-15T21:24:38.835Z,22.08
2023-04-15T21:27:05.743Z,22.08
2023-04-15T21:29:32.630Z,22.25
2023-04-15T21:31:59.412Z,22.31
2023-04-15T21:34:26.151Z,22.36
2023-04-15T21:36:52.893Z,22.36
2023-04-15T21:39:19.710Z,22.45
2023-04-15T21:41:46.545Z,22.55
2023-04-15T21:44:14.741Z,22.56
2023-04-15T21:46:42.031Z,22.60
2023-04-15T21:49:12.910Z,22.67
2023-04-15T21:51:39.673Z,22.73
2023-04-15T21:54:06.428Z,22.77
2023-04-15T21:56:33.197Z,22.87
2023-04-15T21:58:59.954Z,23.00
2023-04-15T22:01:26.799Z,22.88
2023-04-15T22:03:53.939Z,22.92
2023-04-15T22:06:21.029Z,21.60
2023-04-15T22:08:56.078Z,19.28
2023-04-15T22:11:28.358Z,18.35
2023-04-15T22:13:55.531Z,20.23
2023-04-15T22:16:22.446Z,21.07
2023-04-15T22:18:49.267Z,21.42
2023-04-15T22:21:16.222Z,21.75
2023-04-15T22:23:42.967Z,21.81
2023-04-15T22:26:09.856Z,22.00
2023-04-15T22:28:36.667Z,22.10
2023-04-15T22:31:03.766Z,22.10
2023-04-15T22:33:30.696Z,22.31
2023-04-15T22:35:57.485Z,22.35
2023-04-15T22:38:24.226Z,22.48
2023-04-15T22:40:53.796Z,22.52
2023-04-15T22:43:20.695Z,22.59
2023-04-15T22:45:47.486Z,22.63
2023-04-15T22:48:14.225Z,22.63
2023-04-15T22:50:41.048Z,22.68
2023-04-15T22:53:07.797Z,22.70
2023-04-15T22:55:34.525Z,22.74
2023-04-15T22:58:01.321Z,22.73
2023-04-15T23:00:28.049Z,22.85
2023-04-15T23:02:54.954Z,22.86
2023-04-15T23:05:22.287Z,22.99
2023-04-15T23:07:49.089Z,23.03
2023-04-15T23:10:15.898Z,21.99
2023-04-15T23:12:42.731Z,19.52
2023-04-15T23:15:09.469Z,18.24
2023-04-15T23:17:36.273Z,20.00
2023-04-15T23:20:03.042Z,20.93
2023-04-15T23:22:29.786Z,21.33
2023-04-15T23:24:56.525Z,21.61
2023-04-15T23:27:23.266Z,21.87
2023-04-15T23:29:50.015Z,21.96
2023-04-15T23:32:16.791Z,22.05
2023-04-15T23:34:43.577Z,22.16
2023-04-15T23:37:10.381Z,22.16
2023-04-15T23:39:37.128Z,22.39
2023-04-15T23:42:03.907Z,22.43
2023-04-15T23:44:30.673Z,22.45
2023-04-15T23:46:57.495Z,22.48
2023-04-15T23:49:24.291Z,22.59
2023-04-15T23:51:51.083Z,22.63
2023-04-15T23:54:17.827Z,22.71
2023-04-15T23:56:44.637Z,22.75
2023-04-15T23:59:11.610Z,22.78
